To NAV CANADA Home Page Login to a new session Search on AWWS site Disclaimer Vers la page française équivalente Tips FAQ What's new on the site To the Forecasts and Observations / NOTAM section To "File a Flight Plan" website Publications and other links Update of the User's profile FIC Telephone Numbers My Weather Data Folder Route Weather Data Regional Weather Data Local Weather Data To the Forecasts and Observations / NOTAM section
Request Generated 04/24/2019 at 16:32:20 UTC . Weather information available at that time is displayed.

METAR/TAF

YORKTON MUNICIPALITY/SK    (show WxCam)

METAR CYQV 241600Z AUTO 31011G17KT 9SM CLR 14/00 A2976 RMK SLP088 DENSITY ALT 2000FT=
METAR CYQV 241500Z AUTO 32013G18KT 9SM CLR 13/01 A2977 RMK SLP091 DENSITY ALT 1800FT=
METAR CYQV 241400Z AUTO 30014KT 9SM CLR 10/01 A2976 RMK SLP090=

TAF CYQV 241138Z 2412/2424 28010KT P6SM SKC
FM241500 31010KT P6SM SCT060 TEMPO 2415/2424 BKN060
BECMG 2418/2420 30018KT
RMK FCST BASED ON AUTO OBS. NXT FCST BY 241800Z=
Your time UTC time
Weather data provided by Environment Canada and NAV CANADA